sensor_id;sensor_type;location;lat;lon;timestamp;temperature;humidity
34776;DHT22;20989;52.566;13.346;2022-10-19T00:02:23;21.70;55.80
34776;DHT22;20989;52.566;13.346;2022-10-19T00:05:23;21.70;55.80
34776;DHT22;20989;52.566;13.346;2022-10-19T00:08:24;21.70;55.80
34776;DHT22;20989;52.566;13.346;2022-10-19T00:11:26;21.70;55.80
34776;DHT22;20989;52.566;13.346;2022-10-19T00:14:27;21.70;55.80
34776;DHT22;20989;52.566;13.346;2022-10-19T00:17:27;21.70;55.80
34776;DHT22;20989;52.566;13.346;2022-10-19T00:20:28;21.70;55.80
34776;DHT22;20989;52.566;13.346;2022-10-19T00:23:28;21.70;55.80
34776;DHT22;20989;52.566;13.346;2022-10-19T00:26:29;21.70;55.80
34776;DHT22;20989;52.566;13.346;2022-10-19T00:29:31;21.70;55.80
34776;DHT22;20989;52.566;13.346;2022-10-19T00:32:31;21.70;55.80
34776;DHT22;20989;52.566;13.346;2022-10-19T00:35:32;21.70;55.80
34776;DHT22;20989;52.566;13.346;2022-10-19T00:38:33;21.60;56.20
34776;DHT22;20989;52.566;13.346;2022-10-19T00:41:35;21.70;55.80
34776;DHT22;20989;52.566;13.346;2022-10-19T00:47:36;21.70;55.80
34776;DHT22;20989;52.566;13.346;2022-10-19T00:50:39;21.70;55.80
34776;DHT22;20989;52.566;13.346;2022-10-19T00:53:40;21.60;55.80
34776;DHT22;20989;52.566;13.346;2022-10-19T00:56:43;21.70;55.80
34776;DHT22;20989;52.566;13.346;2022-10-19T00:59:45;21.60;55.80
34776;DHT22;20989;52.566;13.346;2022-10-19T01:02:46;21.60;55.80
34776;DHT22;20989;52.566;13.346;2022-10-19T01:05:48;21.70;55.80
34776;DHT22;20989;52.566;13.346;2022-10-19T01:08:49;21.60;55.70
34776;DHT22;20989;52.566;13.346;2022-10-19T01:18:39;21.60;55.70
34776;DHT22;20989;52.566;13.346;2022-10-19T01:22:12;21.60;55.80
34776;DHT22;20989;52.566;13.346;2022-10-19T01:35:16;21.60;55.70
34776;DHT22;20989;52.566;13.346;2022-10-19T01:39:09;21.60;55.70
34776;DHT22;20989;52.566;13.346;2022-10-19T01:48:40;21.60;55.70
34776;DHT22;20989;52.566;13.346;2022-10-19T01:51:46;21.60;55.70
34776;DHT22;20989;52.566;13.346;2022-10-19T01:54:58;21.60;55.70
34776;DHT22;20989;52.566;13.346;2022-10-19T01:58:03;21.60;55.70
34776;DHT22;20989;52.566;13.346;2022-10-19T02:01:08;21.60;55.70
34776;DHT22;20989;52.566;13.346;2022-10-19T02:04:12;21.60;55.70
34776;DHT22;20989;52.566;13.346;2022-10-19T02:07:15;21.60;55.70
34776;DHT22;20989;52.566;13.346;2022-10-19T02:10:17;21.60;55.70
34776;DHT22;20989;52.566;13.346;2022-10-19T02:13:19;21.60;55.70
34776;DHT22;20989;52.566;13.346;2022-10-19T02:16:38;21.60;55.70
34776;DHT22;20989;52.566;13.346;2022-10-19T02:19:40;21.60;55.70
34776;DHT22;20989;52.566;13.346;2022-10-19T02:22:41;21.60;55.70
34776;DHT22;20989;52.566;13.346;2022-10-19T02:25:42;21.60;55.70
34776;DHT22;20989;52.566;13.346;2022-10-19T02:28:43;21.60;55.70
34776;DHT22;20989;52.566;13.346;2022-10-19T02:31:44;21.60;55.60
34776;DHT22;20989;52.566;13.346;2022-10-19T02:34:45;21.60;55.70
34776;DHT22;20989;52.566;13.346;2022-10-19T02:37:45;21.60;55.70
34776;DHT22;20989;52.566;13.346;2022-10-19T02:44:56;21.50;55.70
34776;DHT22;20989;52.566;13.346;2022-10-19T02:48:02;21.50;55.60
34776;DHT22;20989;52.566;13.346;2022-10-19T02:51:03;21.50;55.60
34776;DHT22;20989;52.566;13.346;2022-10-19T02:54:06;21.50;55.60
34776;DHT22;20989;52.566;13.346;2022-10-19T02:57:15;21.50;55.60
34776;DHT22;20989;52.566;13.346;2022-10-19T03:00:16;21.60;55.70
34776;DHT22;20989;52.566;13.346;2022-10-19T03:03:17;21.50;55.60
34776;DHT22;20989;52.566;13.346;2022-10-19T03:06:18;21.60;55.60
34776;DHT22;20989;52.566;13.346;2022-10-19T03:09:18;21.60;55.60
34776;DHT22;20989;52.566;13.346;2022-10-19T03:12:19;21.60;55.60
34776;DHT22;20989;52.566;13.346;2022-10-19T03:15:20;21.50;55.50
34776;DHT22;20989;52.566;13.346;2022-10-19T03:18:24;21.50;55.50
34776;DHT22;20989;52.566;13.346;2022-10-19T03:21:24;21.50;55.60
34776;DHT22;20989;52.566;13.346;2022-10-19T03:24:25;21.50;55.50
34776;DHT22;20989;52.566;13.346;2022-10-19T03:27:26;21.50;55.50
34776;DHT22;20989;52.566;13.346;2022-10-19T03:30:26;21.50;55.60
34776;DHT22;20989;52.566;13.346;2022-10-19T03:33:27;21.50;55.60
34776;DHT22;20989;52.566;13.346;2022-10-19T03:36:34;21.50;55.40
34776;DHT22;20989;52.566;13.346;2022-10-19T03:39:37;21.50;55.40
34776;DHT22;20989;52.566;13.346;2022-10-19T03:42:37;21.50;55.40
34776;DHT22;20989;52.566;13.346;2022-10-19T03:45:38;21.50;55.40
34776;DHT22;20989;52.566;13.346;2022-10-19T03:48:39;21.50;55.40
34776;DHT22;20989;52.566;13.346;2022-10-19T03:51:39;21.50;55.40
34776;DHT22;20989;52.566;13.346;2022-10-19T03:54:40;21.50;55.40
34776;DHT22;20989;52.566;13.346;2022-10-19T03:57:41;21.50;55.50
34776;DHT22;20989;52.566;13.346;2022-10-19T04:00:41;21.50;55.50
34776;DHT22;20989;52.566;13.346;2022-10-19T04:03:42;21.50;55.90
34776;DHT22;20989;52.566;13.346;2022-10-19T04:06:45;21.50;55.40
34776;DHT22;20989;52.566;13.346;2022-10-19T04:09:46;21.50;55.40
34776;DHT22;20989;52.566;13.346;2022-10-19T04:12:46;21.50;55.40
34776;DHT22;20989;52.566;13.346;2022-10-19T04:15:47;21.50;55.40
34776;DHT22;20989;52.566;13.346;2022-10-19T04:18:48;21.50;55.40
34776;DHT22;20989;52.566;13.346;2022-10-19T04:21:49;21.50;55.40
34776;DHT22;20989;52.566;13.346;2022-10-19T04:24:50;21.50;55.40
34776;DHT22;20989;52.566;13.346;2022-10-19T04:27:50;21.50;55.50
34776;DHT22;20989;52.566;13.346;2022-10-19T04:30:51;21.50;55.40
34776;DHT22;20989;52.566;13.346;2022-10-19T04:33:51;21.50;55.40
34776;DHT22;20989;52.566;13.346;2022-10-19T04:36:53;21.50;55.50
34776;DHT22;20989;52.566;13.346;2022-10-19T04:39:53;21.50;55.50
34776;DHT22;20989;52.566;13.346;2022-10-19T04:42:54;21.50;55.50
34776;DHT22;20989;52.566;13.346;2022-10-19T04:45:55;21.40;55.40
34776;DHT22;20989;52.566;13.346;2022-10-19T04:48:57;21.50;55.50
34776;DHT22;20989;52.566;13.346;2022-10-19T04:51:58;21.50;55.50
34776;DHT22;20989;52.566;13.346;2022-10-19T04:54:59;21.50;55.50
34776;DHT22;20989;52.566;13.346;2022-10-19T04:57:59;21.50;55.40
34776;DHT22;20989;52.566;13.346;2022-10-19T05:01:27;21.50;55.40
34776;DHT22;20989;52.566;13.346;2022-10-19T05:04:28;21.50;55.50
34776;DHT22;20989;52.566;13.346;2022-10-19T05:07:29;21.40;55.40
34776;DHT22;20989;52.566;13.346;2022-10-19T05:10:29;21.40;55.40
34776;DHT22;20989;52.566;13.346;2022-10-19T05:13:31;21.40;55.40
34776;DHT22;20989;52.566;13.346;2022-10-19T05:16:33;21.40;55.40
34776;DHT22;20989;52.566;13.346;2022-10-19T05:19:34;21.50;55.40
34776;DHT22;20989;52.566;13.346;2022-10-19T05:22:34;21.40;55.40
34776;DHT22;20989;52.566;13.346;2022-10-19T05:25:35;21.40;55.40
34776;DHT22;20989;52.566;13.346;2022-10-19T05:28:36;21.40;55.40
34776;DHT22;20989;52.566;13.346;2022-10-19T05:31:37;21.40;55.30
34776;DHT22;20989;52.566;13.346;2022-10-19T05:34:38;21.40;55.30
34776;DHT22;20989;52.566;13.346;2022-10-19T05:37:38;21.40;55.40
34776;DHT22;20989;52.566;13.346;2022-10-19T05:40:44;21.40;55.40
34776;DHT22;20989;52.566;13.346;2022-10-19T05:43:50;21.40;55.30
34776;DHT22;20989;52.566;13.346;2022-10-19T05:46:52;21.40;55.40
34776;DHT22;20989;52.566;13.346;2022-10-19T05:49:53;21.40;55.40
34776;DHT22;20989;52.566;13.346;2022-10-19T05:52:53;21.40;55.40
34776;DHT22;20989;52.566;13.346;2022-10-19T05:55:55;21.40;55.40
34776;DHT22;20989;52.566;13.346;2022-10-19T05:58:58;21.40;55.40
34776;DHT22;20989;52.566;13.346;2022-10-19T06:01:59;21.40;55.40
34776;DHT22;20989;52.566;13.346;2022-10-19T06:04:59;21.40;55.40
34776;DHT22;20989;52.566;13.346;2022-10-19T06:08:00;21.40;55.40
34776;DHT22;20989;52.566;13.346;2022-10-19T06:11:06;21.40;55.40
34776;DHT22;20989;52.566;13.346;2022-10-19T06:14:11;21.40;55.40
34776;DHT22;20989;52.566;13.346;2022-10-19T06:17:12;21.40;55.40
34776;DHT22;20989;52.566;13.346;2022-10-19T06:20:12;21.40;55.40
34776;DHT22;20989;52.566;13.346;2022-10-19T06:23:13;21.50;55.40
34776;DHT22;20989;52.566;13.346;2022-10-19T06:26:15;21.60;55.20
34776;DHT22;20989;52.566;13.346;2022-10-19T06:29:15;21.60;55.00
34776;DHT22;20989;52.566;13.346;2022-10-19T06:32:16;21.60;54.90
34776;DHT22;20989;52.566;13.346;2022-10-19T06:35:17;21.70;55.00
34776;DHT22;20989;52.566;13.346;2022-10-19T06:38:18;21.70;55.00
34776;DHT22;20989;52.566;13.346;2022-10-19T06:41:19;21.70;55.00
34776;DHT22;20989;52.566;13.346;2022-10-19T06:44:20;21.70;55.00
34776;DHT22;20989;52.566;13.346;2022-10-19T06:47:21;21.70;55.00
34776;DHT22;20989;52.566;13.346;2022-10-19T06:50:21;21.70;54.70
34776;DHT22;20989;52.566;13.346;2022-10-19T06:53:22;21.80;55.00
34776;DHT22;20989;52.566;13.346;2022-10-19T06:56:24;21.80;54.90
34776;DHT22;20989;52.566;13.346;2022-10-19T06:59:25;21.80;54.70
34776;DHT22;20989;52.566;13.346;2022-10-19T07:02:26;21.80;54.80
34776;DHT22;20989;52.566;13.346;2022-10-19T07:05:26;21.80;54.70
34776;DHT22;20989;52.566;13.346;2022-10-19T07:08:29;21.80;54.70
34776;DHT22;20989;52.566;13.346;2022-10-19T07:11:30;21.80;54.80
34776;DHT22;20989;52.566;13.346;2022-10-19T07:14:31;21.80;54.80
34776;DHT22;20989;52.566;13.346;2022-10-19T07:17:38;21.80;54.90
34776;DHT22;20989;52.566;13.346;2022-10-19T07:20:38;21.90;55.00
34776;DHT22;20989;52.566;13.346;2022-10-19T07:23:40;21.90;55.30
34776;DHT22;20989;52.566;13.346;2022-10-19T07:26:42;21.90;54.70
34776;DHT22;20989;52.566;13.346;2022-10-19T07:29:42;21.90;55.00
34776;DHT22;20989;52.566;13.346;2022-10-19T07:32:43;21.90;54.90
34776;DHT22;20989;52.566;13.346;2022-10-19T07:35:44;21.90;54.90
34776;DHT22;20989;52.566;13.346;2022-10-19T07:38:44;21.90;54.90
34776;DHT22;20989;52.566;13.346;2022-10-19T07:41:45;21.90;55.00
34776;DHT22;20989;52.566;13.346;2022-10-19T07:44:46;21.90;54.90
34776;DHT22;20989;52.566;13.346;2022-10-19T07:47:46;21.90;54.90
34776;DHT22;20989;52.566;13.346;2022-10-19T07:50:47;21.90;54.90
34776;DHT22;20989;52.566;13.346;2022-10-19T07:53:48;21.90;56.00
34776;DHT22;20989;52.566;13.346;2022-10-19T07:56:50;21.90;55.00
34776;DHT22;20989;52.566;13.346;2022-10-19T07:59:50;21.90;54.90
34776;DHT22;20989;52.566;13.346;2022-10-19T08:02:51;21.90;55.20
34776;DHT22;20989;52.566;13.346;2022-10-19T08:05:52;21.80;55.00
34776;DHT22;20989;52.566;13.346;2022-10-19T08:08:53;21.90;55.10
34776;DHT22;20989;52.566;13.346;2022-10-19T08:11:54;21.90;55.10
34776;DHT22;20989;52.566;13.346;2022-10-19T08:14:54;22.00;55.00
34776;DHT22;20989;52.566;13.346;2022-10-19T08:17:56;21.90;52.70
34776;DHT22;20989;52.566;13.346;2022-10-19T08:21:00;21.70;52.20
34776;DHT22;20989;52.566;13.346;2022-10-19T08:24:01;21.70;52.20
34776;DHT22;20989;52.566;13.346;2022-10-19T08:27:02;21.60;51.20
34776;DHT22;20989;52.566;13.346;2022-10-19T08:30:03;21.60;51.60
34776;DHT22;20989;52.566;13.346;2022-10-19T08:33:04;21.60;50.50
34776;DHT22;20989;52.566;13.346;2022-10-19T08:36:07;21.60;51.20
34776;DHT22;20989;52.566;13.346;2022-10-19T08:39:09;21.50;48.90
34776;DHT22;20989;52.566;13.346;2022-10-19T08:42:24;21.50;49.40
34776;DHT22;20989;52.566;13.346;2022-10-19T08:45:41;21.60;51.30
34776;DHT22;20989;52.566;13.346;2022-10-19T08:48:44;21.70;51.00
34776;DHT22;20989;52.566;13.346;2022-10-19T08:51:50;21.70;51.10
34776;DHT22;20989;52.566;13.346;2022-10-19T08:55:06;21.80;51.20
34776;DHT22;20989;52.566;13.346;2022-10-19T09:02:13;21.80;51.30
34776;DHT22;20989;52.566;13.346;2022-10-19T09:05:28;21.80;51.40
34776;DHT22;20989;52.566;13.346;2022-10-19T09:08:32;21.80;51.60
34776;DHT22;20989;52.566;13.346;2022-10-19T09:11:39;21.90;51.80
34776;DHT22;20989;52.566;13.346;2022-10-19T09:15:04;21.80;51.70
34776;DHT22;20989;52.566;13.346;2022-10-19T09:21:31;21.90;51.90
34776;DHT22;20989;52.566;13.346;2022-10-19T09:24:49;21.80;51.60
34776;DHT22;20989;52.566;13.346;2022-10-19T09:28:11;21.60;49.60
34776;DHT22;20989;52.566;13.346;2022-10-19T09:31:27;21.60;50.00
34776;DHT22;20989;52.566;13.346;2022-10-19T09:34:42;21.70;51.10
34776;DHT22;20989;52.566;13.346;2022-10-19T09:37:47;21.80;50.40
34776;DHT22;20989;52.566;13.346;2022-10-19T09:40:48;21.90;50.40
34776;DHT22;20989;52.566;13.346;2022-10-19T09:43:52;22.00;50.50
34776;DHT22;20989;52.566;13.346;2022-10-19T09:50:53;22.00;50.70
34776;DHT22;20989;52.566;13.346;2022-10-19T09:54:33;22.00;51.20
34776;DHT22;20989;52.566;13.346;2022-10-19T09:57:47;22.00;51.30
34776;DHT22;20989;52.566;13.346;2022-10-19T10:00:53;21.90;51.70
34776;DHT22;20989;52.566;13.346;2022-10-19T10:04:08;22.00;51.30
34776;DHT22;20989;52.566;13.346;2022-10-19T10:07:17;21.90;51.30
34776;DHT22;20989;52.566;13.346;2022-10-19T10:10:39;22.00;51.40
34776;DHT22;20989;52.566;13.346;2022-10-19T10:13:53;21.90;51.80
34776;DHT22;20989;52.566;13.346;2022-10-19T10:17:14;21.90;50.30
34776;DHT22;20989;52.566;13.346;2022-10-19T10:20:24;21.90;50.60
34776;DHT22;20989;52.566;13.346;2022-10-19T10:23:59;21.90;50.90
34776;DHT22;20989;52.566;13.346;2022-10-19T10:27:03;22.00;50.50
34776;DHT22;20989;52.566;13.346;2022-10-19T10:30:18;22.10;50.60
34776;DHT22;20989;52.566;13.346;2022-10-19T10:33:25;22.20;50.50
34776;DHT22;20989;52.566;13.346;2022-10-19T10:36:29;22.10;50.60
34776;DHT22;20989;52.566;13.346;2022-10-19T10:39:30;22.00;51.00
34776;DHT22;20989;52.566;13.346;2022-10-19T10:42:43;21.90;51.10
34776;DHT22;20989;52.566;13.346;2022-10-19T10:45:47;21.90;51.30
34776;DHT22;20989;52.566;13.346;2022-10-19T10:48:57;21.90;51.40
34776;DHT22;20989;52.566;13.346;2022-10-19T10:52:03;21.80;51.40
34776;DHT22;20989;52.566;13.346;2022-10-19T10:58:18;21.90;51.70
34776;DHT22;20989;52.566;13.346;2022-10-19T11:01:22;21.80;51.50
34776;DHT22;20989;52.566;13.346;2022-10-19T11:04:29;21.80;51.70
34776;DHT22;20989;52.566;13.346;2022-10-19T11:07:33;21.80;51.70
34776;DHT22;20989;52.566;13.346;2022-10-19T11:10:40;21.80;51.80
34776;DHT22;20989;52.566;13.346;2022-10-19T11:16:50;22.00;51.60
34776;DHT22;20989;52.566;13.346;2022-10-19T11:19:52;22.00;51.50
34776;DHT22;20989;52.566;13.346;2022-10-19T11:23:06;22.10;51.50
34776;DHT22;20989;52.566;13.346;2022-10-19T11:26:14;22.10;51.60
34776;DHT22;20989;52.566;13.346;2022-10-19T11:32:33;22.10;51.60
34776;DHT22;20989;52.566;13.346;2022-10-19T11:35:38;22.10;51.50
34776;DHT22;20989;52.566;13.346;2022-10-19T11:39:12;22.10;51.60
34776;DHT22;20989;52.566;13.346;2022-10-19T11:42:52;22.10;51.70
34776;DHT22;20989;52.566;13.346;2022-10-19T11:49:24;22.10;51.60
34776;DHT22;20989;52.566;13.346;2022-10-19T11:55:40;22.10;51.80
34776;DHT22;20989;52.566;13.346;2022-10-19T11:58:54;22.10;51.80
34776;DHT22;20989;52.566;13.346;2022-10-19T12:05:20;22.20;51.90
34776;DHT22;20989;52.566;13.346;2022-10-19T12:11:54;22.20;51.70
34776;DHT22;20989;52.566;13.346;2022-10-19T12:21:59;22.10;51.90
34776;DHT22;20989;52.566;13.346;2022-10-19T12:25:01;22.00;51.90
34776;DHT22;20989;52.566;13.346;2022-10-19T12:28:02;22.00;52.10
34776;DHT22;20989;52.566;13.346;2022-10-19T12:31:04;21.90;52.10
34776;DHT22;20989;52.566;13.346;2022-10-19T12:37:29;21.90;52.30
34776;DHT22;20989;52.566;13.346;2022-10-19T12:40:43;21.90;52.30
34776;DHT22;20989;52.566;13.346;2022-10-19T12:44:10;21.90;52.40
34776;DHT22;20989;52.566;13.346;2022-10-19T12:47:20;21.90;52.40
34776;DHT22;20989;52.566;13.346;2022-10-19T12:53:48;21.90;52.60
34776;DHT22;20989;52.566;13.346;2022-10-19T12:56:51;21.80;52.50
34776;DHT22;20989;52.566;13.346;2022-10-19T13:00:00;21.80;52.50
34776;DHT22;20989;52.566;13.346;2022-10-19T13:03:14;21.80;52.60
34776;DHT22;20989;52.566;13.346;2022-10-19T13:06:36;21.80;52.50
34776;DHT22;20989;52.566;13.346;2022-10-19T13:09:42;21.80;52.60
34776;DHT22;20989;52.566;13.346;2022-10-19T13:12:45;21.80;52.50
34776;DHT22;20989;52.566;13.346;2022-10-19T13:19:00;21.80;52.60
34776;DHT22;20989;52.566;13.346;2022-10-19T13:22:27;21.80;52.70
34776;DHT22;20989;52.566;13.346;2022-10-19T13:25:35;21.80;52.70
34776;DHT22;20989;52.566;13.346;2022-10-19T13:28:37;21.80;52.70
34776;DHT22;20989;52.566;13.346;2022-10-19T13:31:37;21.80;52.70
34776;DHT22;20989;52.566;13.346;2022-10-19T13:34:38;21.80;52.60
34776;DHT22;20989;52.566;13.346;2022-10-19T13:37:42;21.80;52.70
34776;DHT22;20989;52.566;13.346;2022-10-19T13:47:36;21.80;52.80
34776;DHT22;20989;52.566;13.346;2022-10-19T13:50:42;21.70;52.70
34776;DHT22;20989;52.566;13.346;2022-10-19T13:54:15;21.80;52.70
34776;DHT22;20989;52.566;13.346;2022-10-19T13:57:53;21.70;52.70
34776;DHT22;20989;52.566;13.346;2022-10-19T14:01:44;21.80;52.80
34776;DHT22;20989;52.566;13.346;2022-10-19T14:04:37;21.80;52.70
34776;DHT22;20989;52.566;13.346;2022-10-19T14:14:20;21.70;52.70
34776;DHT22;20989;52.566;13.346;2022-10-19T14:17:25;21.80;52.80
34776;DHT22;20989;52.566;13.346;2022-10-19T14:20:31;21.80;52.90
34776;DHT22;20989;52.566;13.346;2022-10-19T14:23:34;21.80;52.80
34776;DHT22;20989;52.566;13.346;2022-10-19T14:26:36;21.80;52.80
34776;DHT22;20989;52.566;13.346;2022-10-19T14:29:45;21.70;52.80
34776;DHT22;20989;52.566;13.346;2022-10-19T14:32:46;21.80;52.30
34776;DHT22;20989;52.566;13.346;2022-10-19T14:35:50;21.60;46.40
34776;DHT22;20989;52.566;13.346;2022-10-19T14:38:55;21.70;46.30
34776;DHT22;20989;52.566;13.346;2022-10-19T14:41:55;21.90;53.10
34776;DHT22;20989;52.566;13.346;2022-10-19T14:45:00;22.00;53.60
34776;DHT22;20989;52.566;13.346;2022-10-19T14:48:04;22.10;53.70
34776;DHT22;20989;52.566;13.346;2022-10-19T14:51:27;22.30;53.10
34776;DHT22;20989;52.566;13.346;2022-10-19T14:54:35;22.30;53.90
34776;DHT22;20989;52.566;13.346;2022-10-19T14:57:39;22.30;53.80
34776;DHT22;20989;52.566;13.346;2022-10-19T15:00:42;22.40;54.00
34776;DHT22;20989;52.566;13.346;2022-10-19T15:03:45;22.40;54.00
34776;DHT22;20989;52.566;13.346;2022-10-19T15:06:46;22.40;54.30
34776;DHT22;20989;52.566;13.346;2022-10-19T15:09:53;22.40;54.10
34776;DHT22;20989;52.566;13.346;2022-10-19T15:13:02;22.20;52.40
34776;DHT22;20989;52.566;13.346;2022-10-19T15:16:04;22.20;51.60
34776;DHT22;20989;52.566;13.346;2022-10-19T15:19:13;22.30;52.90
34776;DHT22;20989;52.566;13.346;2022-10-19T15:22:20;22.20;53.10
34776;DHT22;20989;52.566;13.346;2022-10-19T15:25:33;22.30;53.20
34776;DHT22;20989;52.566;13.346;2022-10-19T15:28:37;22.30;53.90
34776;DHT22;20989;52.566;13.346;2022-10-19T15:31:38;22.40;54.50
34776;DHT22;20989;52.566;13.346;2022-10-19T15:34:40;22.40;54.80
34776;DHT22;20989;52.566;13.346;2022-10-19T15:37:44;22.40;55.40
34776;DHT22;20989;52.566;13.346;2022-10-19T15:40:47;22.50;56.00
34776;DHT22;20989;52.566;13.346;2022-10-19T15:43:54;22.50;56.20
34776;DHT22;20989;52.566;13.346;2022-10-19T15:47:16;22.50;56.70
34776;DHT22;20989;52.566;13.346;2022-10-19T15:50:32;22.50;56.40
34776;DHT22;20989;52.566;13.346;2022-10-19T15:53:35;22.50;57.20
34776;DHT22;20989;52.566;13.346;2022-10-19T15:56:38;22.60;57.90
34776;DHT22;20989;52.566;13.346;2022-10-19T15:59:39;22.60;58.50
34776;DHT22;20989;52.566;13.346;2022-10-19T16:02:40;22.60;58.70
34776;DHT22;20989;52.566;13.346;2022-10-19T16:05:40;22.60;58.10
34776;DHT22;20989;52.566;13.346;2022-10-19T16:08:41;22.70;58.80
34776;DHT22;20989;52.566;13.346;2022-10-19T16:11:42;22.70;59.00
34776;DHT22;20989;52.566;13.346;2022-10-19T16:14:43;22.70;58.50
34776;DHT22;20989;52.566;13.346;2022-10-19T16:17:47;22.70;59.20
34776;DHT22;20989;52.566;13.346;2022-10-19T16:20:48;22.70;59.60
34776;DHT22;20989;52.566;13.346;2022-10-19T16:23:49;22.70;59.10
34776;DHT22;20989;52.566;13.346;2022-10-19T16:26:49;22.80;58.70
34776;DHT22;20989;52.566;13.346;2022-10-19T16:29:50;22.80;59.00
34776;DHT22;20989;52.566;13.346;2022-10-19T16:32:51;22.90;58.80
34776;DHT22;20989;52.566;13.346;2022-10-19T16:35:52;22.70;58.70
34776;DHT22;20989;52.566;13.346;2022-10-19T16:38:52;22.70;59.40
34776;DHT22;20989;52.566;13.346;2022-10-19T16:41:53;22.60;59.30
34776;DHT22;20989;52.566;13.346;2022-10-19T16:44:54;22.60;59.70
34776;DHT22;20989;52.566;13.346;2022-10-19T16:47:55;22.40;56.80
34776;DHT22;20989;52.566;13.346;2022-10-19T16:51:25;22.10;54.80
34776;DHT22;20989;52.566;13.346;2022-10-19T16:54:27;22.20;56.50
34776;DHT22;20989;52.566;13.346;2022-10-19T16:57:32;22.20;56.80
34776;DHT22;20989;52.566;13.346;2022-10-19T17:00:34;22.30;56.50
34776;DHT22;20989;52.566;13.346;2022-10-19T17:03:35;22.40;57.90
34776;DHT22;20989;52.566;13.346;2022-10-19T17:06:37;22.40;57.90
34776;DHT22;20989;52.566;13.346;2022-10-19T17:09:38;22.40;57.90
34776;DHT22;20989;52.566;13.346;2022-10-19T17:12:39;22.50;58.00
34776;DHT22;20989;52.566;13.346;2022-10-19T17:15:40;22.40;58.00
34776;DHT22;20989;52.566;13.346;2022-10-19T17:18:41;22.40;57.90
34776;DHT22;20989;52.566;13.346;2022-10-19T17:21:42;22.40;57.90
34776;DHT22;20989;52.566;13.346;2022-10-19T17:24:43;22.40;58.30
34776;DHT22;20989;52.566;13.346;2022-10-19T17:27:49;22.40;58.50
34776;DHT22;20989;52.566;13.346;2022-10-19T17:30:50;22.40;58.20
34776;DHT22;20989;52.566;13.346;2022-10-19T17:33:52;22.50;58.30
34776;DHT22;20989;52.566;13.346;2022-10-19T17:36:53;22.40;58.30
34776;DHT22;20989;52.566;13.346;2022-10-19T17:39:54;22.50;58.30
34776;DHT22;20989;52.566;13.346;2022-10-19T17:42:54;22.50;58.90
34776;DHT22;20989;52.566;13.346;2022-10-19T17:45:59;22.50;58.70
34776;DHT22;20989;52.566;13.346;2022-10-19T17:49:02;22.60;59.30
34776;DHT22;20989;52.566;13.346;2022-10-19T17:52:03;22.60;58.90
34776;DHT22;20989;52.566;13.346;2022-10-19T17:55:04;22.50;58.50
34776;DHT22;20989;52.566;13.346;2022-10-19T17:58:05;22.50;59.40
34776;DHT22;20989;52.566;13.346;2022-10-19T18:01:07;22.50;59.50
34776;DHT22;20989;52.566;13.346;2022-10-19T18:04:08;22.50;59.70
34776;DHT22;20989;52.566;13.346;2022-10-19T18:07:09;22.50;59.50
34776;DHT22;20989;52.566;13.346;2022-10-19T18:10:10;22.50;59.60
34776;DHT22;20989;52.566;13.346;2022-10-19T18:13:11;22.50;59.50
34776;DHT22;20989;52.566;13.346;2022-10-19T18:16:20;22.50;59.60
34776;DHT22;20989;52.566;13.346;2022-10-19T18:19:21;22.50;60.20
34776;DHT22;20989;52.566;13.346;2022-10-19T18:22:22;22.50;60.30
34776;DHT22;20989;52.566;13.346;2022-10-19T18:25:23;22.50;61.00
34776;DHT22;20989;52.566;13.346;2022-10-19T18:28:23;22.50;60.20
34776;DHT22;20989;52.566;13.346;2022-10-19T18:31:28;22.50;60.50
34776;DHT22;20989;52.566;13.346;2022-10-19T18:34:30;22.40;60.80
34776;DHT22;20989;52.566;13.346;2022-10-19T18:37:30;22.30;60.60
34776;DHT22;20989;52.566;13.346;2022-10-19T18:40:36;22.20;61.30
34776;DHT22;20989;52.566;13.346;2022-10-19T18:43:38;22.20;61.20
34776;DHT22;20989;52.566;13.346;2022-10-19T18:46:39;22.10;61.50
34776;DHT22;20989;52.566;13.346;2022-10-19T18:49:39;22.10;61.70
34776;DHT22;20989;52.566;13.346;2022-10-19T18:52:40;22.00;61.70
34776;DHT22;20989;52.566;13.346;2022-10-19T18:55:41;22.00;62.10
34776;DHT22;20989;52.566;13.346;2022-10-19T18:58:44;22.00;62.70
34776;DHT22;20989;52.566;13.346;2022-10-19T19:01:45;22.00;62.00
34776;DHT22;20989;52.566;13.346;2022-10-19T19:04:46;21.90;62.30
34776;DHT22;20989;52.566;13.346;2022-10-19T19:07:48;21.90;62.40
34776;DHT22;20989;52.566;13.346;2022-10-19T19:10:48;21.90;62.50
34776;DHT22;20989;52.566;13.346;2022-10-19T19:13:57;21.90;62.40
34776;DHT22;20989;52.566;13.346;2022-10-19T19:16:59;21.90;62.90
34776;DHT22;20989;52.566;13.346;2022-10-19T19:20:00;21.80;63.10
34776;DHT22;20989;52.566;13.346;2022-10-19T19:23:00;21.80;62.60
34776;DHT22;20989;52.566;13.346;2022-10-19T19:26:02;21.80;62.60
34776;DHT22;20989;52.566;13.346;2022-10-19T19:29:03;21.70;62.50
34776;DHT22;20989;52.566;13.346;2022-10-19T19:32:04;21.70;62.60
34776;DHT22;20989;52.566;13.346;2022-10-19T19:35:05;21.70;62.70
34776;DHT22;20989;52.566;13.346;2022-10-19T19:38:05;21.70;62.50
34776;DHT22;20989;52.566;13.346;2022-10-19T19:41:13;21.70;62.60
34776;DHT22;20989;52.566;13.346;2022-10-19T19:44:15;21.70;62.80
34776;DHT22;20989;52.566;13.346;2022-10-19T19:47:16;21.70;62.80
34776;DHT22;20989;52.566;13.346;2022-10-19T19:50:18;21.70;62.70
34776;DHT22;20989;52.566;13.346;2022-10-19T19:53:19;21.70;62.60
34776;DHT22;20989;52.566;13.346;2022-10-19T19:56:20;21.60;62.90
34776;DHT22;20989;52.566;13.346;2022-10-19T19:59:20;21.70;62.40
34776;DHT22;20989;52.566;13.346;2022-10-19T20:02:21;21.60;62.50
34776;DHT22;20989;52.566;13.346;2022-10-19T20:05:22;21.60;62.80
34776;DHT22;20989;52.566;13.346;2022-10-19T20:08:23;21.60;62.50
34776;DHT22;20989;52.566;13.346;2022-10-19T20:11:27;21.60;62.20
34776;DHT22;20989;52.566;13.346;2022-10-19T20:14:27;21.60;62.20
34776;DHT22;20989;52.566;13.346;2022-10-19T20:17:28;21.60;62.30
34776;DHT22;20989;52.566;13.346;2022-10-19T20:20:29;21.60;62.00
34776;DHT22;20989;52.566;13.346;2022-10-19T20:23:30;21.60;61.80
34776;DHT22;20989;52.566;13.346;2022-10-19T20:26:31;21.60;61.80
34776;DHT22;20989;52.566;13.346;2022-10-19T20:29:32;21.60;61.80
34776;DHT22;20989;52.566;13.346;2022-10-19T20:32:32;21.60;61.70
34776;DHT22;20989;52.566;13.346;2022-10-19T20:35:35;21.60;61.40
34776;DHT22;20989;52.566;13.346;2022-10-19T20:38:37;21.60;61.50
34776;DHT22;20989;52.566;13.346;2022-10-19T20:41:39;21.50;61.40